Terminal Aerodrome Forecast
Issued by NWS

Home | Current Version | Previous Version | Text Only | Print | Product List | Glossary On
Versions: 1 2 3 4 5 6 7 8 9 10 11 12 13 14 15 16 17 18
000
FTUS43 KGRR 230540
TAFMKG
TAF
KMKG 230540Z 2306/2406 10012G20KT P6SM VCSH OVC018
     FM230800 12010G15KT P6SM OVC010
     FM231000 14010KT P6SM OVC008
     FM231200 17011KT 5SM -RA BR OVC004
     FM231800 24010G17KT P6SM OVC008
     FM232100 25010KT P6SM OVC015
     FM240300 30006KT P6SM OVC015=

USA.gov is the U.S. government's official web portal to all federal, state and local government web resources and services.